Time;durP1;ratioP1;P1;durP2;ratioP2;P2;SDS_P1;SDS_P2;PMS_P1;PMS_P2;Temp;Humidity;BMP_temperature;BMP_pressure;BME280_temperature;BME280_humidity;BME280_pressure;Samples;Min_cycle;Max_cycle;Signal;HPM_P1;HPM_P2
2022/11/05 00:11:02;;;;;;;2.20;1.45;;;7.80;99.90;;;;;;20907636;28;20278;-78
2022/11/05 00:21:03;;;;;;;4.83;1.10;;;7.70;99.90;;;;;;20889039;28;20029;-78
2022/11/05 00:31:10;;;;;;;3.65;1.08;;;7.70;99.90;;;;;;20897070;28;20035;-78
2022/11/05 00:41:11;;;;;;;3.17;1.30;;;7.70;99.90;;;;;;20884316;28;20068;-78
2022/11/05 00:51:12;;;;;;;2.83;1.30;;;7.70;99.90;;;;;;20913385;28;20025;-78
2022/11/05 01:01:12;;;;;;;3.00;1.10;;;7.70;99.90;;;;;;20932101;28;20105;-78
2022/11/05 01:11:31;;;;;;;3.67;1.10;;;7.70;99.90;;;;;;20913264;28;20090;-78
2022/11/05 01:21:32;;;;;;;1.83;1.10;;;7.60;99.90;;;;;;20889285;28;20032;-78
2022/11/05 01:31:33;;;;;;;1.10;0.88;;;7.60;99.90;;;;;;20888663;28;20021;-78
2022/11/05 01:41:34;;;;;;;3.97;1.63;;;7.60;99.90;;;;;;20879342;28;20021;-78
2022/11/05 01:51:35;;;;;;;2.43;1.50;;;7.50;99.90;;;;;;20887531;28;20268;-78
2022/11/05 02:01:36;;;;;;;6.32;1.50;;;7.50;99.90;;;;;;20884139;28;20091;-78
2022/11/05 02:11:37;;;;;;;4.67;1.90;;;7.50;99.90;;;;;;20892001;28;20388;-78
2022/11/05 02:22:10;;;;;;;4.57;1.90;;;7.50;99.90;;;;;;20919215;28;20426;-78
2022/11/05 02:32:43;;;;;;;5.13;2.65;;;7.50;99.90;;;;;;20897160;28;20044;-77
2022/11/05 02:43:14;;;;;;;5.75;2.22;;;7.50;99.90;;;;;;20915522;28;20483;-77
2022/11/05 02:53:21;;;;;;;3.27;2.23;;;7.50;99.90;;;;;;20911477;28;20411;-77
2022/11/05 03:03:28;;;;;;;5.28;2.42;;;7.50;99.90;;;;;;20902059;28;20036;-77
2022/11/05 03:13:40;;;;;;;4.35;2.60;;;7.50;99.90;;;;;;20916269;28;20094;-77
2022/11/05 03:23:49;;;;;;;3.28;1.90;;;7.50;99.90;;;;;;20917445;28;20095;-77
2022/11/05 03:33:51;;;;;;;4.88;2.38;;;7.60;99.90;;;;;;20915095;28;20040;-78
2022/11/05 03:43:57;;;;;;;3.42;2.10;;;7.60;99.90;;;;;;20916311;28;20081;-78
2022/11/05 03:54:01;;;;;;;5.32;2.30;;;7.60;99.90;;;;;;20915373;28;20561;-78
2022/11/05 04:04:07;;;;;;;4.65;2.22;;;7.60;99.90;;;;;;20915003;28;20037;-76
2022/11/05 04:14:07;;;;;;;4.00;2.28;;;7.60;99.90;;;;;;20914611;28;20115;-77
2022/11/05 04:24:08;;;;;;;3.47;2.17;;;7.60;99.90;;;;;;20883249;28;20025;-78
2022/11/05 04:34:09;;;;;;;3.60;2.47;;;7.60;99.90;;;;;;20834823;28;20040;-77
2022/11/05 04:44:10;;;;;;;5.53;2.57;;;7.60;99.90;;;;;;20849039;28;20028;-78
2022/11/05 04:54:11;;;;;;;5.37;3.10;;;7.60;99.90;;;;;;20846130;28;20112;-76
2022/11/05 05:04:11;;;;;;;5.20;3.37;;;7.60;99.90;;;;;;20839943;28;20030;-78
2022/11/05 05:14:12;;;;;;;4.97;3.10;;;7.60;99.90;;;;;;20837448;28;20049;-77
2022/11/05 05:24:17;;;;;;;8.13;3.78;;;7.70;99.90;;;;;;20843668;28;20061;-78
2022/11/05 05:34:18;;;;;;;7.97;4.10;;;7.60;99.90;;;;;;20846354;28;20029;-77
2022/11/05 05:44:19;;;;;;;7.97;3.80;;;7.60;99.90;;;;;;20842001;28;20048;-80
2022/11/05 05:54:21;;;;;;;6.47;4.43;;;7.50;99.90;;;;;;20837520;28;20040;-77
2022/11/05 06:04:22;;;;;;;7.40;5.03;;;7.50;99.90;;;;;;20833039;28;20288;-77
2022/11/05 06:14:23;;;;;;;9.80;4.93;;;7.60;99.90;;;;;;20842431;28;20079;-77
2022/11/05 06:24:24;;;;;;;8.90;5.53;;;7.60;99.90;;;;;;20842391;28;20283;-77
2022/11/05 06:34:24;;;;;;;12.45;6.70;;;7.60;99.90;;;;;;20835166;28;20029;-77
2022/11/05 06:44:25;;;;;;;13.63;7.63;;;7.50;99.90;;;;;;20833475;28;20030;-78
2022/11/05 06:54:26;;;;;;;14.15;7.10;;;7.60;99.90;;;;;;20830189;28;20464;-78
2022/11/05 07:04:27;;;;;;;11.23;7.13;;;7.60;99.90;;;;;;20830483;28;20036;-78
2022/11/05 07:14:28;;;;;;;10.37;5.57;;;7.70;99.90;;;;;;20833264;28;20068;-79
2022/11/05 07:24:28;;;;;;;8.77;5.50;;;7.80;99.90;;;;;;20844020;28;20049;-79
2022/11/05 07:34:29;;;;;;;14.23;7.47;;;7.90;99.90;;;;;;20897382;28;20039;-79
2022/11/05 07:44:30;;;;;;;6.90;4.80;;;7.90;99.90;;;;;;20930742;28;20479;-80
2022/11/05 07:54:31;;;;;;;12.60;5.57;;;7.90;99.90;;;;;;20933086;28;20021;-80
2022/11/05 08:04:31;;;;;;;8.20;4.20;;;7.90;99.90;;;;;;20853180;28;20124;-78
2022/11/05 08:14:32;;;;;;;7.00;3.72;;;8.00;99.90;;;;;;20850223;28;20021;-77
2022/11/05 08:24:33;;;;;;;6.43;3.80;;;8.20;99.90;;;;;;20884391;28;20055;-79
2022/11/05 08:34:34;;;;;;;10.43;4.50;;;8.80;99.90;;;;;;20922518;28;20021;-80
2022/11/05 08:44:37;;;;;;;15.77;4.00;;;9.80;99.90;;;;;;20898330;28;20085;-81
2022/11/05 08:54:42;;;;;;;8.40;5.00;;;10.70;99.90;;;;;;20891442;28;20140;-78
2022/11/05 09:04:43;;;;;;;12.63;7.50;;;10.10;99.90;;;;;;20897396;28;20500;-80
2022/11/05 09:14:45;;;;;;;15.85;7.25;;;10.10;99.90;;;;;;20897548;28;20032;-79
2022/11/05 09:24:46;;;;;;;10.38;6.05;;;9.60;99.90;;;;;;20894837;28;20017;-77
2022/11/05 09:34:47;;;;;;;10.20;5.00;;;10.80;99.90;;;;;;20887745;28;20021;-79
2022/11/05 09:44:54;;;;;;;10.60;5.07;;;10.40;99.90;;;;;;20885492;28;20046;-78
2022/11/05 09:54:56;;;;;;;10.95;5.20;;;11.80;99.90;;;;;;20882609;28;20419;-78
2022/11/05 10:05:03;;;;;;;10.80;5.50;;;10.60;99.90;;;;;;21002412;28;20446;-78
2022/11/05 10:15:06;;;;;;;14.25;6.88;;;10.00;99.90;;;;;;20956760;28;20051;-78
2022/11/05 10:25:17;;;;;;;14.05;6.95;;;9.60;99.90;;;;;;20924158;28;20059;-78
2022/11/05 10:35:21;;;;;;;14.30;7.90;;;9.50;99.90;;;;;;20924236;28;20534;-78
2022/11/05 10:45:39;;;;;;;15.65;7.82;;;9.50;99.90;;;;;;20938297;28;20104;-78
2022/11/05 10:55:46;;;;;;;15.38;7.45;;;9.30;99.90;;;;;;20925528;28;20022;-78
2022/11/05 11:05:47;;;;;;;15.65;9.60;;;9.30;99.90;;;;;;20858595;28;20092;-78
2022/11/05 11:15:49;;;;;;;13.03;7.53;;;9.50;99.90;;;;;;20865399;28;20044;-78
2022/11/05 11:25:56;;;;;;;14.05;6.50;;;9.50;99.90;;;;;;20848353;28;20061;-78
2022/11/05 11:35:57;;;;;;;16.30;7.15;;;9.50;99.90;;;;;;20840575;28;20386;-78
2022/11/05 11:45:58;;;;;;;12.52;6.28;;;9.60;99.90;;;;;;20856555;28;20082;-78
2022/11/05 11:56:15;;;;;;;11.93;6.33;;;10.00;99.90;;;;;;20902156;28;20037;-78
2022/11/05 12:06:28;;;;;;;9.07;5.65;;;9.80;99.90;;;;;;20836322;28;20045;-78
2022/11/05 12:16:36;;;;;;;8.27;5.47;;;9.90;99.90;;;;;;20832528;28;20033;-77
2022/11/05 12:27:00;;;;;;;11.75;5.80;;;9.80;99.90;;;;;;20832249;28;20036;-78
2022/11/05 12:37:04;;;;;;;10.30;5.35;;;9.70;99.90;;;;;;20854796;28;20036;-78
2022/11/05 12:47:29;;;;;;;8.70;4.70;;;10.10;99.90;;;;;;20876432;28;20064;-78
2022/11/05 12:57:35;;;;;;;8.48;5.10;;;10.40;99.90;;;;;;20886490;28;20025;-78
2022/11/05 13:07:43;;;;;;;9.93;4.47;;;10.00;99.90;;;;;;20844382;28;1134637;-78
2022/11/05 13:18:13;;;;;;;9.05;4.10;;;9.90;99.90;;;;;;20888514;28;20025;-79
2022/11/05 13:28:22;;;;;;;13.20;4.30;;;10.10;99.90;;;;;;20886663;28;20045;-78
2022/11/05 13:49:17;;;;;;;7.28;4.00;;;10.50;99.90;;;;;;20960084;28;20110;-78
2022/11/05 13:59:42;;;;;;;7.85;3.35;;;11.70;99.90;;;;;;20934819;28;20112;-78
2022/11/05 14:09:43;;;;;;;5.85;3.10;;;11.60;99.90;;;;;;20925963;28;20043;-78
2022/11/05 14:20:31;;;;;;;5.38;2.95;;;11.00;99.90;;;;;;20926380;28;20098;-78
2022/11/05 14:30:44;;;;;;;5.03;3.42;;;10.40;99.90;;;;;;20837615;28;20037;-78
2022/11/05 14:40:45;;;;;;;4.93;3.00;;;10.10;99.90;;;;;;20905732;28;20040;-78
2022/11/05 14:50:48;;;;;;;;;;;10.20;99.90;;;;;;20948025;28;20029;-78
2022/11/05 15:00:49;;;;;;;6.03;3.00;;;10.30;99.90;;;;;;20869626;28;19921;-78
2022/11/05 15:10:52;;;;;;;8.13;2.00;;;10.20;99.90;;;;;;20853128;28;20527;-78
2022/11/05 15:20:56;;;;;;;6.65;4.03;;;11.10;99.90;;;;;;20904117;28;20033;-79
2022/11/05 15:31:03;;;;;;;6.55;2.45;;;11.90;99.90;;;;;;20923342;28;20029;-79
2022/11/05 15:41:16;;;;;;;6.68;1.77;;;10.90;99.90;;;;;;20923376;28;20040;-78
2022/11/05 15:51:19;;;;;;;2.97;1.63;;;9.90;99.90;;;;;;20905070;28;20035;-78
2022/11/05 16:01:30;;;;;;;2.80;1.70;;;9.50;99.90;;;;;;20877900;28;20038;-78
2022/11/05 16:11:31;;;;;;;2.97;1.48;;;9.10;99.90;;;;;;20835076;28;20040;-78
2022/11/05 16:21:52;;;;;;;2.43;1.60;;;9.00;99.90;;;;;;20882716;28;20376;-78
2022/11/05 16:31:55;;;;;;;2.22;1.42;;;8.80;99.90;;;;;;20871338;28;20283;-79
2022/11/05 16:41:56;;;;;;;5.45;3.15;;;8.40;99.90;;;;;;20922515;28;20036;-78
2022/11/05 16:51:58;;;;;;;4.13;2.77;;;8.20;99.90;;;;;;20929070;28;20033;-78
2022/11/05 17:01:59;;;;;;;4.45;2.25;;;7.70;99.90;;;;;;20931499;28;20088;-78
2022/11/05 17:12:01;;;;;;;6.20;4.07;;;7.00;99.90;;;;;;20933175;28;20044;-77
2022/11/05 17:22:02;;;;;;;6.15;2.65;;;6.70;99.90;;;;;;20930162;28;20123;-77
2022/11/05 17:32:04;;;;;;;9.30;4.67;;;6.50;99.90;;;;;;20991381;28;20024;-77
2022/11/05 17:42:05;;;;;;;136.77;48.25;;;6.00;99.90;;;;;;21011443;28;20040;-77
2022/11/05 17:52:06;;;;;;;19.85;9.93;;;5.80;99.90;;;;;;21008403;28;20380;-75
2022/11/05 18:02:10;;;;;;;;;;;5.70;99.90;;;;;;20854658;28;20407;-77
2022/11/05 18:12:11;;;;;;;14.60;8.93;;;5.60;99.90;;;;;;20848220;28;19913;-77
2022/11/05 18:22:12;;;;;;;;;;;5.30;99.90;;;;;;20885994;28;20391;-77
2022/11/05 18:32:12;;;;;;;14.10;6.38;;;5.10;99.90;;;;;;20844762;28;19957;-77
2022/11/05 18:42:13;;;;;;;;;;;4.90;99.90;;;;;;20849008;28;20072;-77
2022/11/05 18:52:14;;;;;;;10.15;5.03;;;5.10;99.90;;;;;;20892801;28;19920;-78
2022/11/05 19:02:15;;;;;;;11.63;4.65;;;4.70;99.90;;;;;;20925789;28;20087;-78
2022/11/05 19:12:16;;;;;;;;;;;4.70;99.90;;;;;;20856511;28;20041;-77
2022/11/05 19:22:17;;;;;;;12.20;4.87;;;4.50;99.90;;;;;;20867610;28;19913;-77
2022/11/05 19:32:18;;;;;;;;;;;4.30;99.90;;;;;;20878049;28;20728;-77
2022/11/05 19:42:19;;;;;;;12.48;6.07;;;4.20;99.90;;;;;;20862173;28;20409;-77
2022/11/05 19:52:20;;;;;;;26.20;10.23;;;4.10;99.90;;;;;;20869319;28;20029;-77
2022/11/05 20:02:21;;;;;;;15.00;4.70;;;4.40;99.90;;;;;;20872799;28;20080;-76
2022/11/05 20:12:21;;;;;;;15.93;5.95;;;3.80;99.90;;;;;;20883488;28;20112;-77
2022/11/05 20:22:23;;;;;;;14.95;7.53;;;3.60;99.90;;;;;;20885822;28;20025;-77
2022/11/05 20:32:24;;;;;;;14.43;6.38;;;3.60;99.90;;;;;;20888727;28;20029;-77
2022/11/05 20:42:24;;;;;;;17.50;8.15;;;3.30;99.90;;;;;;20884694;28;20041;-76
2022/11/05 20:52:26;;;;;;;16.23;7.47;;;3.40;99.90;;;;;;20883606;28;20108;-77
2022/11/05 21:02:27;;;;;;;12.60;6.65;;;3.40;99.90;;;;;;20881733;28;20037;-77
2022/11/05 21:12:27;;;;;;;13.10;6.10;;;3.30;99.90;;;;;;20882457;28;20038;-77
2022/11/05 21:22:28;;;;;;;17.27;6.38;;;3.20;99.90;;;;;;20880299;28;20037;-77
2022/11/05 21:32:29;;;;;;;12.25;5.65;;;3.00;99.90;;;;;;20876428;28;20040;-77
2022/11/05 21:42:30;;;;;;;11.93;5.78;;;2.80;99.90;;;;;;20880986;28;20029;-77
2022/11/05 22:02:50;;;;;;;10.25;4.95;;;2.90;99.90;;;;;;20876242;28;20033;-77
2022/11/05 22:12:50;;;;;;;10.38;5.70;;;2.60;99.90;;;;;;20884751;28;20778;-77
2022/11/05 22:22:52;;;;;;;13.82;6.07;;;2.70;99.90;;;;;;20898575;28;20025;-77
2022/11/05 22:32:53;;;;;;;20.33;6.05;;;2.60;99.90;;;;;;20849020;28;20060;-77
2022/11/05 22:42:54;;;;;;;9.70;5.35;;;2.30;99.90;;;;;;20837671;28;20060;-77
2022/11/05 22:52:55;;;;;;;11.25;4.88;;;2.30;99.90;;;;;;20913748;28;20021;-78
2022/11/05 23:02:56;;;;;;;6.75;4.10;;;2.30;99.90;;;;;;21000856;28;20115;-77
2022/11/05 23:12:56;;;;;;;12.02;5.05;;;2.30;99.90;;;;;;20997306;28;20391;-78
2022/11/05 23:33:16;;;;;;;9.23;4.07;;;2.00;99.90;;;;;;20998428;28;20044;-77
2022/11/05 23:53:44;;;;;;;13.85;3.35;;;2.10;99.90;;;;;;20974703;28;20044;-77
